Flight Number: EUR1131 Duration: 1:10
Departure: Gatwick Airport (EGKK) at 07:50 Distance: 370 Nm
Arrival: Basel-Mulhouse (LFSB) at 09:00 Equipment: A321

Weather Information
London / Gatwick Airport, United Kingdom (EGKK) 51-09N 000-11W 0M May 20, 2018 - 09:20 AM EDT / 2018.05.20 1320 UTC
Wind: from the NE (050 degrees) at 7 MPH (6 KT) (direction variable):0
Visibility: greater than 7 mile(s):0
Sky conditions: mostly clear Temperature: 66 F (19 C) Dew Point: 51 F (11 C) Relative Humidity: 59% Pressure (altimeter): 30.15 in. Hg (1021 hPa)
ob: EGKK 201320Z 05006KT 360V080 9999 FEW030 19/11 Q1021 cycle: 13
Sunrise: 04:06 Sunset: 19:47 (UTC)

Bale-Mulhouse, France (LFSB) 47-36N 007-31E 271M May 20, 2018 - 09:30 AM EDT / 2018.05.20 1330 UTC
Wind: from the N (010 degrees) at 6 MPH (5 KT) (direction variable):0
Visibility: greater than 7 mile(s):0
Sky conditions: mostly cloudy Weather: Towering cumulus clouds observed Temperature: 69 F (21 C) Dew Point: 53 F (12 C) Relative Humidity: 56% Pressure (altimeter): 30.03 in. Hg (1017 hPa)
ob: LFSB 201330Z 01005KT 310V080 9999 FEW036 FEW040TCU BKN066 21/12 Q1017 NOSIG cycle: 13
Sunrise: 03:50 Sunset: 19:02 (UTC)

TAF:2018/05/20 12:21 TAF LFSB 201100Z 2012/2112 35006KT 9999 FEW030TCU SCT050 TEMPO 2012/2021 FEW040CB PROB40 TEMPO 2017/2020 4000 SHRA BECMG 2021/2024 NSC TEMPO 2102/2107 3000 BR BECMG 2109/2112 FEW050TCU

Previous Pireps for this route
Date Aircraft Flight time Fuel used Landing rate On time
2012-11-13B73701.3013217-102Yes
2012-11-21A32101.207933-388No
2013-01-06B73701.236734-271Yes
2013-01-14B73701.277657-204Yes
2013-02-03B73701.207604-226No
2013-06-09B73701.046400-368No
2013-07-10B73701.188800-145No
2013-07-28B73701.3112913-567No
2013-10-09A3211.16100500No
2013-10-15B7371.1575000No
2014-02-10B73701.4411685-131No
2014-05-14A32101.228153-291Yes
2014-08-14B73701.208225-175No
2014-11-17B73701.237853-96No
2015-03-10A32101.19-1039-238Yes
2015-04-06B73702.0213553-241No
2015-04-22CRJ7001.0438770Charter
2015-05-25A32101.439503-129Yes
2015-05-26A32101.369336-219Yes
2015-07-20A32101.287930-134Yes
2016-02-28CRJ70001.116247-175Charter
2016-07-11A3211.158127-699No
(pireps marked green are flown by you)

Route map